Tropical Cyclones
[Index]
Season 2017-2018 Tropical Cyclone LINDA Track Map
Season 2017-2018 Summaries: [BoM-AU] [JTWC-AU] [JTWC-SIO] [JTWC-SPAC] [JTWC-SH]
<<- Previous TC | JTWC 2017-2018 Season | Next TC ->>

click for intensity scale information  Lat/long Grid: Show Hide

 Date Labels: Show Hide

Joint Typhoon Warning Centre Cyclone Data

Name: LINDA

11 Mar 2018 06:00 UTC to 15 Mar 2018 18:00 UTC

    date/time    lat    long     hPa   cat  kts
2018-03-11 06    9.5   160.0    1010         15          
2018-03-11 12   10.7   160.0    1010         15          
2018-03-11 18   11.7   159.9    1007         20          
2018-03-12 00   13.0   159.7    1004         25          
2018-03-12 06   14.2   159.8    1002         30          
2018-03-12 12   15.4   160.1     998         35          
2018-03-12 18   16.6   160.2     996    1    40          
2018-03-13 00   17.7   160.0     994    1    45          
2018-03-13 06   19.1   159.6     992    1    50          
2018-03-13 12   20.5   158.8     989    2    55          
2018-03-13 12   20.5   158.8     989    2    55          
2018-03-13 18   21.2   157.7     991    1    50          
2018-03-13 18   21.2   157.7     991    1    50          
2018-03-14 00   21.9   156.9     993    1    45          
2018-03-14 06   22.5   156.4     995    1    40          
2018-03-14 12   22.8   156.2     995    1    40          
2018-03-14 18   23.1   156.1     998         35          
2018-03-15 00   23.8   156.3    1000         30          
2018-03-15 06   24.4   156.6    1004         25          
2018-03-15 12   25.0   157.0    1004         25          
2018-03-15 18   25.6   157.4    1007         20          
Winds are 1-min average.

Tropical cyclone tracks developed by Michael Bath using data from the Joint Typhoon Warning Centre Best Tracks and Google Maps.


Document: tropical_cyclone_linda.htm
Updated: 17 June 2020
[Australian Severe Weather index] [Copyright Notice] [Email Contacts] [Search This Site] [Privacy Policy]


Main Index Home Page Stock Weather Photos Extreme Storms Discussion Storm News and Storm Chasing Reports Tropical Cyclones / Hurricanes / Typhoons Weather Data and Links Wild Fires / Bushfires Weather Observation Techniques Weather Picture Catalogue Tornado Pictures and Reports Stock Video Footage and DVDs for sale